METAR

ENBN 292350Z 08011KT 040V140 9999 FEW040 BKN070 M03/M13 Q0994

ENMS 292220Z 19003KT 9999 SCT050 M08/M11 Q0997 RMK WIND 412FT 12004KT

ENNM 292050Z 10014G24KT CAVOK M07/M13 Q0996

ENOL 292350Z 10017KT CAVOK M03/M10 Q0989

ENST 292350Z 08009KT 030V110 9999 FEW009 SCT020 M03/M12 Q0994 RMK WIND 300FT VRB06KT

ENVA 292350Z 10010KT CAVOK M05/M11 Q0992 RMK WIND 670FT 12012KT



TAF

TAF TAF AMD ENVA 2919/3018 12008KT 9999 FEW030 SCT080 PROB40 3007/3012 26010KT 3000 -SN VV012